sensor_id;sensor_type;location;lat;lon;timestamp;P1;durP1;ratioP1;P2;durP2;ratioP2
25319;SDS011;13256;49.012;8.610;2024-01-11T00:00:53;43.70;;;16.60;;
25319;SDS011;13256;49.012;8.610;2024-01-11T00:03:20;45.47;;;18.42;;
25319;SDS011;13256;49.012;8.610;2024-01-11T00:05:49;43.33;;;18.42;;
25319;SDS011;13256;49.012;8.610;2024-01-11T00:08:19;41.03;;;16.63;;
25319;SDS011;13256;49.012;8.610;2024-01-11T00:10:54;45.78;;;18.27;;
25319;SDS011;13256;49.012;8.610;2024-01-11T00:13:23;46.55;;;19.60;;
25319;SDS011;13256;49.012;8.610;2024-01-11T00:25:05;40.70;;;16.40;;
25319;SDS011;13256;49.012;8.610;2024-01-11T00:27:32;37.42;;;15.75;;
25319;SDS011;13256;49.012;8.610;2024-01-11T00:36:32;46.60;;;17.75;;
25319;SDS011;13256;49.012;8.610;2024-01-11T00:39:05;58.58;;;22.13;;
25319;SDS011;13256;49.012;8.610;2024-01-11T00:47:40;44.28;;;18.75;;
25319;SDS011;13256;49.012;8.610;2024-01-11T00:56:30;39.65;;;17.90;;
25319;SDS011;13256;49.012;8.610;2024-01-11T01:05:51;42.35;;;18.23;;
25319;SDS011;13256;49.012;8.610;2024-01-11T01:08:19;44.28;;;19.23;;
25319;SDS011;13256;49.012;8.610;2024-01-11T01:10:50;43.55;;;18.13;;
25319;SDS011;13256;49.012;8.610;2024-01-11T01:13:19;45.92;;;19.77;;
25319;SDS011;13256;49.012;8.610;2024-01-11T01:24:54;51.83;;;19.67;;
25319;SDS011;13256;49.012;8.610;2024-01-11T01:27:24;46.75;;;20.77;;
25319;SDS011;13256;49.012;8.610;2024-01-11T01:35:38;52.72;;;19.83;;
25319;SDS011;13256;49.012;8.610;2024-01-11T01:41:54;49.63;;;19.98;;
25319;SDS011;13256;49.012;8.610;2024-01-11T01:44:22;51.95;;;20.55;;
25319;SDS011;13256;49.012;8.610;2024-01-11T01:46:53;53.80;;;21.08;;
25319;SDS011;13256;49.012;8.610;2024-01-11T01:49:25;50.70;;;20.73;;
25319;SDS011;13256;49.012;8.610;2024-01-11T01:51:55;47.28;;;20.15;;
25319;SDS011;13256;49.012;8.610;2024-01-11T01:54:22;50.40;;;20.75;;
25319;SDS011;13256;49.012;8.610;2024-01-11T01:59:51;44.38;;;20.42;;
25319;SDS011;13256;49.012;8.610;2024-01-11T02:02:27;50.50;;;20.02;;
25319;SDS011;13256;49.012;8.610;2024-01-11T02:05:02;49.75;;;19.77;;
25319;SDS011;13256;49.012;8.610;2024-01-11T02:07:33;51.38;;;20.08;;
25319;SDS011;13256;49.012;8.610;2024-01-11T02:10:04;47.40;;;20.02;;
25319;SDS011;13256;49.012;8.610;2024-01-11T02:12:39;46.58;;;20.20;;
25319;SDS011;13256;49.012;8.610;2024-01-11T02:15:08;48.25;;;20.38;;
25319;SDS011;13256;49.012;8.610;2024-01-11T02:20:32;48.47;;;19.83;;
25319;SDS011;13256;49.012;8.610;2024-01-11T02:23:06;51.15;;;20.55;;
25319;SDS011;13256;49.012;8.610;2024-01-11T02:25:44;40.17;;;18.80;;
25319;SDS011;13256;49.012;8.610;2024-01-11T02:31:14;47.80;;;19.80;;
25319;SDS011;13256;49.012;8.610;2024-01-11T02:33:43;48.03;;;21.13;;
25319;SDS011;13256;49.012;8.610;2024-01-11T02:45:02;47.47;;;19.83;;
25319;SDS011;13256;49.012;8.610;2024-01-11T02:47:30;44.00;;;20.75;;
25319;SDS011;13256;49.012;8.610;2024-01-11T02:49:59;45.30;;;20.73;;
25319;SDS011;13256;49.012;8.610;2024-01-11T02:52:29;46.05;;;20.25;;
25319;SDS011;13256;49.012;8.610;2024-01-11T02:54:55;44.50;;;20.65;;
25319;SDS011;13256;49.012;8.610;2024-01-11T02:57:22;49.97;;;20.98;;
25319;SDS011;13256;49.012;8.610;2024-01-11T02:59:49;48.90;;;19.65;;
25319;SDS011;13256;49.012;8.610;2024-01-11T03:02:17;46.22;;;20.35;;
25319;SDS011;13256;49.012;8.610;2024-01-11T03:04:44;54.72;;;21.00;;
25319;SDS011;13256;49.012;8.610;2024-01-11T03:40:23;54.70;;;23.17;;
25319;SDS011;13256;49.012;8.610;2024-01-11T03:45:56;52.95;;;20.58;;
25319;SDS011;13256;49.012;8.610;2024-01-11T03:48:22;51.20;;;22.23;;
25319;SDS011;13256;49.012;8.610;2024-01-11T03:50:50;45.22;;;20.20;;
25319;SDS011;13256;49.012;8.610;2024-01-11T03:53:19;50.45;;;20.33;;
25319;SDS011;13256;49.012;8.610;2024-01-11T03:55:53;49.65;;;19.95;;
25319;SDS011;13256;49.012;8.610;2024-01-11T03:58:21;42.80;;;19.45;;
25319;SDS011;13256;49.012;8.610;2024-01-11T04:00:48;50.03;;;20.98;;
25319;SDS011;13256;49.012;8.610;2024-01-11T04:03:18;52.03;;;21.88;;
25319;SDS011;13256;49.012;8.610;2024-01-11T04:05:44;48.83;;;20.52;;
25319;SDS011;13256;49.012;8.610;2024-01-11T04:08:16;53.50;;;21.38;;
25319;SDS011;13256;49.012;8.610;2024-01-11T04:10:46;48.95;;;20.67;;
25319;SDS011;13256;49.012;8.610;2024-01-11T04:13:13;57.13;;;22.73;;
25319;SDS011;13256;49.012;8.610;2024-01-11T04:15:42;47.78;;;20.42;;
25319;SDS011;13256;49.012;8.610;2024-01-11T04:18:08;55.58;;;21.60;;
25319;SDS011;13256;49.012;8.610;2024-01-11T04:20:35;52.20;;;21.92;;
25319;SDS011;13256;49.012;8.610;2024-01-11T04:23:06;49.80;;;21.20;;
25319;SDS011;13256;49.012;8.610;2024-01-11T04:25:33;55.88;;;23.70;;
25319;SDS011;13256;49.012;8.610;2024-01-11T04:28:01;50.13;;;21.85;;
25319;SDS011;13256;49.012;8.610;2024-01-11T04:30:28;58.17;;;22.13;;
25319;SDS011;13256;49.012;8.610;2024-01-11T04:32:56;50.38;;;21.35;;
25319;SDS011;13256;49.012;8.610;2024-01-11T04:35:32;49.50;;;21.50;;
25319;SDS011;13256;49.012;8.610;2024-01-11T04:37:59;49.25;;;20.70;;
25319;SDS011;13256;49.012;8.610;2024-01-11T04:40:26;51.75;;;21.05;;
25319;SDS011;13256;49.012;8.610;2024-01-11T04:42:53;49.53;;;21.58;;
25319;SDS011;13256;49.012;8.610;2024-01-11T04:45:23;59.83;;;24.42;;
25319;SDS011;13256;49.012;8.610;2024-01-11T04:47:52;69.03;;;28.55;;
25319;SDS011;13256;49.012;8.610;2024-01-11T04:50:20;64.78;;;26.15;;
25319;SDS011;13256;49.012;8.610;2024-01-11T04:52:49;60.20;;;24.67;;
25319;SDS011;13256;49.012;8.610;2024-01-11T04:55:15;50.47;;;22.70;;
25319;SDS011;13256;49.012;8.610;2024-01-11T04:57:45;53.65;;;22.55;;
25319;SDS011;13256;49.012;8.610;2024-01-11T05:00:16;61.25;;;25.95;;
25319;SDS011;13256;49.012;8.610;2024-01-11T05:02:45;61.88;;;25.10;;
25319;SDS011;13256;49.012;8.610;2024-01-11T05:05:13;54.13;;;24.25;;
25319;SDS011;13256;49.012;8.610;2024-01-11T05:07:41;54.33;;;21.85;;
25319;SDS011;13256;49.012;8.610;2024-01-11T05:13:28;53.50;;;22.70;;
25319;SDS011;13256;49.012;8.610;2024-01-11T05:15:55;53.60;;;23.77;;
25319;SDS011;13256;49.012;8.610;2024-01-11T05:18:25;54.45;;;23.75;;
25319;SDS011;13256;49.012;8.610;2024-01-11T05:20:55;66.00;;;25.00;;
25319;SDS011;13256;49.012;8.610;2024-01-11T05:23:22;87.60;;;32.03;;
25319;SDS011;13256;49.012;8.610;2024-01-11T05:25:49;81.32;;;33.28;;
25319;SDS011;13256;49.012;8.610;2024-01-11T05:28:16;65.63;;;30.55;;
25319;SDS011;13256;49.012;8.610;2024-01-11T05:30:43;72.90;;;30.45;;
25319;SDS011;13256;49.012;8.610;2024-01-11T05:33:16;83.93;;;31.25;;
25319;SDS011;13256;49.012;8.610;2024-01-11T05:35:43;56.08;;;23.70;;
25319;SDS011;13256;49.012;8.610;2024-01-11T05:38:15;53.55;;;23.90;;
25319;SDS011;13256;49.012;8.610;2024-01-11T05:40:45;52.60;;;21.95;;
25319;SDS011;13256;49.012;8.610;2024-01-11T05:43:12;53.67;;;21.63;;
25319;SDS011;13256;49.012;8.610;2024-01-11T05:45:44;59.20;;;22.63;;
25319;SDS011;13256;49.012;8.610;2024-01-11T05:48:17;57.35;;;21.90;;
25319;SDS011;13256;49.012;8.610;2024-01-11T05:50:45;56.80;;;23.33;;
25319;SDS011;13256;49.012;8.610;2024-01-11T05:53:23;58.45;;;24.33;;
25319;SDS011;13256;49.012;8.610;2024-01-11T05:55:53;66.57;;;27.95;;
25319;SDS011;13256;49.012;8.610;2024-01-11T05:58:21;63.45;;;26.30;;
25319;SDS011;13256;49.012;8.610;2024-01-11T06:05:12;70.50;;;27.85;;
25319;SDS011;13256;49.012;8.610;2024-01-11T06:07:46;63.90;;;25.25;;
25319;SDS011;13256;49.012;8.610;2024-01-11T06:10:16;60.10;;;22.95;;
25319;SDS011;13256;49.012;8.610;2024-01-11T06:12:46;59.40;;;23.85;;
25319;SDS011;13256;49.012;8.610;2024-01-11T06:15:13;58.50;;;23.95;;
25319;SDS011;13256;49.012;8.610;2024-01-11T06:17:42;52.60;;;22.98;;
25319;SDS011;13256;49.012;8.610;2024-01-11T06:20:09;51.67;;;21.85;;
25319;SDS011;13256;49.012;8.610;2024-01-11T06:22:49;60.35;;;24.58;;
25319;SDS011;13256;49.012;8.610;2024-01-11T06:25:18;54.13;;;23.02;;
25319;SDS011;13256;49.012;8.610;2024-01-11T06:27:46;60.70;;;25.13;;
25319;SDS011;13256;49.012;8.610;2024-01-11T06:30:13;60.05;;;21.83;;
25319;SDS011;13256;49.012;8.610;2024-01-11T06:32:40;54.17;;;23.63;;
25319;SDS011;13256;49.012;8.610;2024-01-11T06:35:10;52.45;;;23.38;;
25319;SDS011;13256;49.012;8.610;2024-01-11T06:37:37;56.00;;;22.77;;
25319;SDS011;13256;49.012;8.610;2024-01-11T06:40:04;65.75;;;24.83;;
25319;SDS011;13256;49.012;8.610;2024-01-11T06:42:36;62.45;;;25.25;;
25319;SDS011;13256;49.012;8.610;2024-01-11T06:45:06;66.57;;;26.25;;
25319;SDS011;13256;49.012;8.610;2024-01-11T06:47:35;64.35;;;27.58;;
25319;SDS011;13256;49.012;8.610;2024-01-11T06:50:05;58.13;;;25.83;;
25319;SDS011;13256;49.012;8.610;2024-01-11T06:52:39;62.60;;;25.98;;
25319;SDS011;13256;49.012;8.610;2024-01-11T06:55:12;74.57;;;31.17;;
25319;SDS011;13256;49.012;8.610;2024-01-11T06:57:41;74.07;;;30.08;;
25319;SDS011;13256;49.012;8.610;2024-01-11T07:00:08;63.72;;;25.58;;
25319;SDS011;13256;49.012;8.610;2024-01-11T07:02:38;54.22;;;23.92;;
25319;SDS011;13256;49.012;8.610;2024-01-11T07:05:07;63.28;;;24.10;;
25319;SDS011;13256;49.012;8.610;2024-01-11T07:07:35;59.28;;;25.25;;
25319;SDS011;13256;49.012;8.610;2024-01-11T07:10:02;64.70;;;28.73;;
25319;SDS011;13256;49.012;8.610;2024-01-11T07:12:32;60.45;;;26.73;;
25319;SDS011;13256;49.012;8.610;2024-01-11T07:14:59;76.90;;;31.83;;
25319;SDS011;13256;49.012;8.610;2024-01-11T07:21:46;68.72;;;27.42;;
25319;SDS011;13256;49.012;8.610;2024-01-11T07:24:13;59.97;;;26.85;;
25319;SDS011;13256;49.012;8.610;2024-01-11T07:26:40;69.10;;;27.65;;
25319;SDS011;13256;49.012;8.610;2024-01-11T07:29:09;64.25;;;25.52;;
25319;SDS011;13256;49.012;8.610;2024-01-11T07:31:40;65.68;;;28.63;;
25319;SDS011;13256;49.012;8.610;2024-01-11T07:34:07;73.45;;;30.77;;
25319;SDS011;13256;49.012;8.610;2024-01-11T07:36:34;67.30;;;28.85;;
25319;SDS011;13256;49.012;8.610;2024-01-11T07:39:03;64.20;;;30.15;;
25319;SDS011;13256;49.012;8.610;2024-01-11T07:41:30;72.15;;;29.92;;
25319;SDS011;13256;49.012;8.610;2024-01-11T07:43:58;64.45;;;25.65;;
25319;SDS011;13256;49.012;8.610;2024-01-11T07:46:27;65.97;;;27.20;;
25319;SDS011;13256;49.012;8.610;2024-01-11T07:49:06;55.08;;;25.85;;
25319;SDS011;13256;49.012;8.610;2024-01-11T07:51:34;68.57;;;26.95;;
25319;SDS011;13256;49.012;8.610;2024-01-11T07:54:00;60.05;;;26.45;;
25319;SDS011;13256;49.012;8.610;2024-01-11T07:56:29;63.92;;;27.20;;
25319;SDS011;13256;49.012;8.610;2024-01-11T07:58:56;63.38;;;26.45;;
25319;SDS011;13256;49.012;8.610;2024-01-11T08:01:29;54.88;;;23.92;;
25319;SDS011;13256;49.012;8.610;2024-01-11T08:04:03;57.97;;;23.77;;
25319;SDS011;13256;49.012;8.610;2024-01-11T08:06:30;47.85;;;21.33;;
25319;SDS011;13256;49.012;8.610;2024-01-11T08:08:58;63.83;;;27.13;;
25319;SDS011;13256;49.012;8.610;2024-01-11T08:11:26;70.82;;;30.00;;
25319;SDS011;13256;49.012;8.610;2024-01-11T08:14:02;63.97;;;28.50;;
25319;SDS011;13256;49.012;8.610;2024-01-11T08:16:31;64.75;;;27.05;;
25319;SDS011;13256;49.012;8.610;2024-01-11T08:18:59;65.28;;;27.58;;
25319;SDS011;13256;49.012;8.610;2024-01-11T08:21:30;65.32;;;28.60;;
25319;SDS011;13256;49.012;8.610;2024-01-11T08:24:04;64.90;;;28.90;;
25319;SDS011;13256;49.012;8.610;2024-01-11T08:26:34;67.35;;;29.10;;
25319;SDS011;13256;49.012;8.610;2024-01-11T08:29:01;69.05;;;28.48;;
25319;SDS011;13256;49.012;8.610;2024-01-11T08:31:31;53.72;;;25.42;;
25319;SDS011;13256;49.012;8.610;2024-01-11T08:33:58;56.10;;;26.08;;
25319;SDS011;13256;49.012;8.610;2024-01-11T08:36:30;54.33;;;24.05;;
25319;SDS011;13256;49.012;8.610;2024-01-11T08:38:59;55.13;;;24.30;;
25319;SDS011;13256;49.012;8.610;2024-01-11T08:41:33;57.03;;;25.33;;
25319;SDS011;13256;49.012;8.610;2024-01-11T08:44:04;63.10;;;24.23;;
25319;SDS011;13256;49.012;8.610;2024-01-11T08:46:33;56.13;;;24.75;;
25319;SDS011;13256;49.012;8.610;2024-01-11T08:49:03;55.75;;;24.15;;
25319;SDS011;13256;49.012;8.610;2024-01-11T08:51:33;57.38;;;24.98;;
25319;SDS011;13256;49.012;8.610;2024-01-11T08:54:01;58.17;;;25.73;;
25319;SDS011;13256;49.012;8.610;2024-01-11T08:56:30;53.30;;;23.60;;
25319;SDS011;13256;49.012;8.610;2024-01-11T08:58:57;57.83;;;25.40;;
25319;SDS011;13256;49.012;8.610;2024-01-11T09:01:26;52.83;;;23.90;;
25319;SDS011;13256;49.012;8.610;2024-01-11T09:03:54;58.95;;;24.85;;
25319;SDS011;13256;49.012;8.610;2024-01-11T09:06:23;51.53;;;24.83;;
25319;SDS011;13256;49.012;8.610;2024-01-11T09:08:53;58.10;;;24.92;;
25319;SDS011;13256;49.012;8.610;2024-01-11T09:11:21;55.33;;;24.35;;
25319;SDS011;13256;49.012;8.610;2024-01-11T09:13:55;48.03;;;22.80;;
25319;SDS011;13256;49.012;8.610;2024-01-11T09:16:23;58.47;;;24.67;;
25319;SDS011;13256;49.012;8.610;2024-01-11T09:18:52;47.25;;;22.77;;
25319;SDS011;13256;49.012;8.610;2024-01-11T09:21:34;50.03;;;22.58;;
25319;SDS011;13256;49.012;8.610;2024-01-11T09:24:01;47.13;;;21.45;;
25319;SDS011;13256;49.012;8.610;2024-01-11T09:26:28;53.08;;;23.23;;
25319;SDS011;13256;49.012;8.610;2024-01-11T09:28:57;45.00;;;22.35;;
25319;SDS011;13256;49.012;8.610;2024-01-11T09:31:24;61.47;;;24.45;;
25319;SDS011;13256;49.012;8.610;2024-01-11T09:37:57;51.28;;;22.77;;
25319;SDS011;13256;49.012;8.610;2024-01-11T09:40:25;45.40;;;21.60;;
25319;SDS011;13256;49.012;8.610;2024-01-11T09:42:55;52.90;;;22.27;;
25319;SDS011;13256;49.012;8.610;2024-01-11T09:45:22;51.88;;;22.92;;
25319;SDS011;13256;49.012;8.610;2024-01-11T09:47:51;49.22;;;21.73;;
25319;SDS011;13256;49.012;8.610;2024-01-11T09:50:19;44.78;;;22.13;;
25319;SDS011;13256;49.012;8.610;2024-01-11T09:52:51;51.30;;;18.75;;
25319;SDS011;13256;49.012;8.610;2024-01-11T09:55:19;45.83;;;17.20;;
25319;SDS011;13256;49.012;8.610;2024-01-11T09:57:47;37.65;;;17.60;;
25319;SDS011;13256;49.012;8.610;2024-01-11T10:00:18;48.17;;;20.75;;
25319;SDS011;13256;49.012;8.610;2024-01-11T10:02:50;44.87;;;19.90;;
25319;SDS011;13256;49.012;8.610;2024-01-11T10:07:50;50.38;;;22.25;;
25319;SDS011;13256;49.012;8.610;2024-01-11T10:10:17;53.50;;;22.58;;
25319;SDS011;13256;49.012;8.610;2024-01-11T10:12:44;51.22;;;20.52;;
25319;SDS011;13256;49.012;8.610;2024-01-11T10:15:13;59.30;;;22.73;;
25319;SDS011;13256;49.012;8.610;2024-01-11T10:17:44;51.10;;;20.85;;
25319;SDS011;13256;49.012;8.610;2024-01-11T10:20:16;44.60;;;21.10;;
25319;SDS011;13256;49.012;8.610;2024-01-11T10:22:50;45.25;;;21.73;;
25319;SDS011;13256;49.012;8.610;2024-01-11T10:25:19;51.22;;;22.02;;
25319;SDS011;13256;49.012;8.610;2024-01-11T10:27:47;45.38;;;20.77;;
25319;SDS011;13256;49.012;8.610;2024-01-11T10:30:17;46.65;;;20.60;;
25319;SDS011;13256;49.012;8.610;2024-01-11T10:32:46;49.35;;;21.67;;
25319;SDS011;13256;49.012;8.610;2024-01-11T10:35:16;44.50;;;19.27;;
25319;SDS011;13256;49.012;8.610;2024-01-11T10:37:56;43.95;;;21.35;;
25319;SDS011;13256;49.012;8.610;2024-01-11T10:43:31;45.20;;;20.02;;
25319;SDS011;13256;49.012;8.610;2024-01-11T10:46:04;44.90;;;20.85;;
25319;SDS011;13256;49.012;8.610;2024-01-11T10:48:33;49.72;;;21.50;;
25319;SDS011;13256;49.012;8.610;2024-01-11T10:51:11;48.38;;;21.55;;
25319;SDS011;13256;49.012;8.610;2024-01-11T10:53:42;50.97;;;22.45;;
25319;SDS011;13256;49.012;8.610;2024-01-11T10:56:12;47.63;;;21.90;;
25319;SDS011;13256;49.012;8.610;2024-01-11T10:58:41;70.55;;;29.75;;
25319;SDS011;13256;49.012;8.610;2024-01-11T11:01:10;127.28;;;39.45;;
25319;SDS011;13256;49.012;8.610;2024-01-11T11:03:38;52.83;;;24.13;;
25319;SDS011;13256;49.012;8.610;2024-01-11T11:06:11;45.13;;;21.48;;
25319;SDS011;13256;49.012;8.610;2024-01-11T11:08:39;46.70;;;22.10;;
25319;SDS011;13256;49.012;8.610;2024-01-11T11:11:08;44.50;;;20.25;;
25319;SDS011;13256;49.012;8.610;2024-01-11T11:13:37;45.55;;;21.75;;
25319;SDS011;13256;49.012;8.610;2024-01-11T11:16:06;50.30;;;21.23;;
25319;SDS011;13256;49.012;8.610;2024-01-11T11:18:42;50.08;;;22.38;;
25319;SDS011;13256;49.012;8.610;2024-01-11T11:21:10;52.75;;;21.55;;
25319;SDS011;13256;49.012;8.610;2024-01-11T11:23:38;51.40;;;23.45;;
25319;SDS011;13256;49.012;8.610;2024-01-11T11:26:05;56.58;;;26.02;;
25319;SDS011;13256;49.012;8.610;2024-01-11T11:28:39;49.15;;;23.27;;
25319;SDS011;13256;49.012;8.610;2024-01-11T11:31:11;49.50;;;24.25;;
25319;SDS011;13256;49.012;8.610;2024-01-11T11:33:48;47.38;;;21.92;;
25319;SDS011;13256;49.012;8.610;2024-01-11T11:36:16;52.55;;;22.08;;
25319;SDS011;13256;49.012;8.610;2024-01-11T11:38:43;49.65;;;20.77;;
25319;SDS011;13256;49.012;8.610;2024-01-11T11:41:10;48.55;;;22.60;;
25319;SDS011;13256;49.012;8.610;2024-01-11T11:43:43;46.63;;;21.83;;
25319;SDS011;13256;49.012;8.610;2024-01-11T11:46:14;47.35;;;21.58;;
25319;SDS011;13256;49.012;8.610;2024-01-11T11:48:48;52.80;;;23.00;;
25319;SDS011;13256;49.012;8.610;2024-01-11T11:51:26;49.65;;;22.17;;
25319;SDS011;13256;49.012;8.610;2024-01-11T11:53:57;46.70;;;22.48;;
25319;SDS011;13256;49.012;8.610;2024-01-11T11:56:24;51.83;;;24.77;;
25319;SDS011;13256;49.012;8.610;2024-01-11T11:58:56;48.97;;;22.88;;
25319;SDS011;13256;49.012;8.610;2024-01-11T12:01:29;43.55;;;21.77;;
25319;SDS011;13256;49.012;8.610;2024-01-11T12:03:58;47.13;;;22.52;;
25319;SDS011;13256;49.012;8.610;2024-01-11T12:06:25;47.78;;;22.27;;
25319;SDS011;13256;49.012;8.610;2024-01-11T12:08:55;52.33;;;23.98;;
25319;SDS011;13256;49.012;8.610;2024-01-11T12:11:24;43.85;;;22.50;;
25319;SDS011;13256;49.012;8.610;2024-01-11T12:13:54;45.15;;;22.17;;
25319;SDS011;13256;49.012;8.610;2024-01-11T12:16:23;46.63;;;21.98;;
25319;SDS011;13256;49.012;8.610;2024-01-11T12:18:50;45.45;;;21.23;;
25319;SDS011;13256;49.012;8.610;2024-01-11T12:21:21;49.10;;;22.17;;
25319;SDS011;13256;49.012;8.610;2024-01-11T12:23:48;50.35;;;22.10;;
25319;SDS011;13256;49.012;8.610;2024-01-11T12:26:15;46.90;;;21.75;;
25319;SDS011;13256;49.012;8.610;2024-01-11T12:31:28;47.40;;;22.73;;
25319;SDS011;13256;49.012;8.610;2024-01-11T12:33:57;44.38;;;21.23;;
25319;SDS011;13256;49.012;8.610;2024-01-11T12:36:28;44.20;;;22.17;;
25319;SDS011;13256;49.012;8.610;2024-01-11T12:38:59;43.60;;;21.65;;
25319;SDS011;13256;49.012;8.610;2024-01-11T12:41:30;44.45;;;22.55;;
25319;SDS011;13256;49.012;8.610;2024-01-11T12:44:01;48.90;;;22.52;;
25319;SDS011;13256;49.012;8.610;2024-01-11T12:46:29;45.67;;;22.75;;
25319;SDS011;13256;49.012;8.610;2024-01-11T12:48:58;44.40;;;21.00;;
25319;SDS011;13256;49.012;8.610;2024-01-11T12:54:32;43.78;;;21.80;;
25319;SDS011;13256;49.012;8.610;2024-01-11T12:57:03;40.67;;;20.92;;
25319;SDS011;13256;49.012;8.610;2024-01-11T12:59:36;45.72;;;20.95;;
25319;SDS011;13256;49.012;8.610;2024-01-11T13:02:05;46.47;;;23.55;;
25319;SDS011;13256;49.012;8.610;2024-01-11T13:04:33;44.42;;;21.67;;
25319;SDS011;13256;49.012;8.610;2024-01-11T13:07:02;47.90;;;21.85;;
25319;SDS011;13256;49.012;8.610;2024-01-11T13:09:29;48.60;;;21.73;;
25319;SDS011;13256;49.012;8.610;2024-01-11T13:11:56;40.63;;;19.17;;
25319;SDS011;13256;49.012;8.610;2024-01-11T13:14:26;45.85;;;20.50;;
25319;SDS011;13256;49.012;8.610;2024-01-11T13:16:55;42.38;;;20.33;;
25319;SDS011;13256;49.012;8.610;2024-01-11T13:19:26;43.58;;;20.73;;
25319;SDS011;13256;49.012;8.610;2024-01-11T13:21:56;40.38;;;19.35;;
25319;SDS011;13256;49.012;8.610;2024-01-11T13:24:28;40.95;;;20.50;;
25319;SDS011;13256;49.012;8.610;2024-01-11T13:26:58;44.63;;;20.05;;
25319;SDS011;13256;49.012;8.610;2024-01-11T13:29:25;39.63;;;19.02;;
25319;SDS011;13256;49.012;8.610;2024-01-11T13:31:52;44.53;;;18.80;;
25319;SDS011;13256;49.012;8.610;2024-01-11T13:34:20;45.85;;;20.08;;
25319;SDS011;13256;49.012;8.610;2024-01-11T13:36:48;38.78;;;19.77;;
25319;SDS011;13256;49.012;8.610;2024-01-11T13:39:22;43.60;;;21.95;;
25319;SDS011;13256;49.012;8.610;2024-01-11T13:41:55;39.58;;;19.92;;
25319;SDS011;13256;49.012;8.610;2024-01-11T13:44:22;42.58;;;19.05;;
25319;SDS011;13256;49.012;8.610;2024-01-11T13:46:53;38.50;;;18.80;;
25319;SDS011;13256;49.012;8.610;2024-01-11T13:49:23;43.67;;;18.75;;
25319;SDS011;13256;49.012;8.610;2024-01-11T13:51:52;39.58;;;17.70;;
25319;SDS011;13256;49.012;8.610;2024-01-11T13:54:34;40.90;;;18.30;;
25319;SDS011;13256;49.012;8.610;2024-01-11T13:57:01;41.53;;;18.80;;
25319;SDS011;13256;49.012;8.610;2024-01-11T13:59:57;43.05;;;19.15;;
25319;SDS011;13256;49.012;8.610;2024-01-11T14:02:27;36.05;;;18.00;;
25319;SDS011;13256;49.012;8.610;2024-01-11T14:04:54;40.92;;;18.70;;
25319;SDS011;13256;49.012;8.610;2024-01-11T14:07:23;43.33;;;19.23;;
25319;SDS011;13256;49.012;8.610;2024-01-11T14:09:52;36.85;;;17.75;;
25319;SDS011;13256;49.012;8.610;2024-01-11T14:12:23;42.53;;;17.88;;
25319;SDS011;13256;49.012;8.610;2024-01-11T14:14:52;45.90;;;19.15;;
25319;SDS011;13256;49.012;8.610;2024-01-11T14:17:21;40.63;;;17.42;;
25319;SDS011;13256;49.012;8.610;2024-01-11T14:19:48;36.58;;;17.35;;
25319;SDS011;13256;49.012;8.610;2024-01-11T14:22:19;37.80;;;18.42;;
25319;SDS011;13256;49.012;8.610;2024-01-11T14:24:53;46.65;;;21.13;;
25319;SDS011;13256;49.012;8.610;2024-01-11T14:27:23;43.30;;;18.23;;
25319;SDS011;13256;49.012;8.610;2024-01-11T14:29:52;37.90;;;17.60;;
25319;SDS011;13256;49.012;8.610;2024-01-11T14:32:19;41.50;;;17.83;;
25319;SDS011;13256;49.012;8.610;2024-01-11T14:35:05;36.50;;;16.45;;
25319;SDS011;13256;49.012;8.610;2024-01-11T14:37:39;39.00;;;17.85;;
25319;SDS011;13256;49.012;8.610;2024-01-11T14:40:09;37.55;;;16.83;;
25319;SDS011;13256;49.012;8.610;2024-01-11T14:45:36;62.42;;;24.85;;
25319;SDS011;13256;49.012;8.610;2024-01-11T14:48:04;127.82;;;35.40;;
25319;SDS011;13256;49.012;8.610;2024-01-11T14:50:34;40.38;;;18.00;;
25319;SDS011;13256;49.012;8.610;2024-01-11T14:53:03;40.53;;;17.17;;
25319;SDS011;13256;49.012;8.610;2024-01-11T14:55:31;35.65;;;17.38;;
25319;SDS011;13256;49.012;8.610;2024-01-11T14:57:58;37.00;;;16.05;;
25319;SDS011;13256;49.012;8.610;2024-01-11T15:00:27;37.42;;;16.88;;
25319;SDS011;13256;49.012;8.610;2024-01-11T15:02:56;37.17;;;17.17;;
25319;SDS011;13256;49.012;8.610;2024-01-11T15:05:26;33.38;;;16.55;;
25319;SDS011;13256;49.012;8.610;2024-01-11T15:07:53;35.58;;;16.10;;
25319;SDS011;13256;49.012;8.610;2024-01-11T15:10:21;36.78;;;17.17;;
25319;SDS011;13256;49.012;8.610;2024-01-11T15:12:49;42.28;;;18.52;;
25319;SDS011;13256;49.012;8.610;2024-01-11T15:15:17;46.92;;;20.13;;
25319;SDS011;13256;49.012;8.610;2024-01-11T15:17:48;37.40;;;17.70;;
25319;SDS011;13256;49.012;8.610;2024-01-11T15:20:21;56.03;;;22.40;;
25319;SDS011;13256;49.012;8.610;2024-01-11T15:22:48;49.80;;;21.52;;
25319;SDS011;13256;49.012;8.610;2024-01-11T15:25:17;51.30;;;21.80;;
25319;SDS011;13256;49.012;8.610;2024-01-11T15:27:48;46.55;;;20.77;;
25319;SDS011;13256;49.012;8.610;2024-01-11T15:30:16;52.03;;;23.70;;
25319;SDS011;13256;49.012;8.610;2024-01-11T15:32:45;53.42;;;23.05;;
25319;SDS011;13256;49.012;8.610;2024-01-11T15:35:13;55.17;;;25.30;;
25319;SDS011;13256;49.012;8.610;2024-01-11T15:37:43;44.58;;;22.15;;
25319;SDS011;13256;49.012;8.610;2024-01-11T15:40:31;50.58;;;21.95;;
25319;SDS011;13256;49.012;8.610;2024-01-11T15:42:58;47.25;;;21.30;;
25319;SDS011;13256;49.012;8.610;2024-01-11T15:45:25;48.80;;;21.48;;
25319;SDS011;13256;49.012;8.610;2024-01-11T15:47:53;47.05;;;20.92;;
25319;SDS011;13256;49.012;8.610;2024-01-11T15:50:21;46.97;;;20.08;;
25319;SDS011;13256;49.012;8.610;2024-01-11T15:52:51;48.20;;;19.23;;
25319;SDS011;13256;49.012;8.610;2024-01-11T15:55:19;42.78;;;19.83;;
25319;SDS011;13256;49.012;8.610;2024-01-11T15:57:49;43.97;;;20.00;;
25319;SDS011;13256;49.012;8.610;2024-01-11T16:00:23;44.35;;;19.50;;
25319;SDS011;13256;49.012;8.610;2024-01-11T16:02:55;30.10;;;13.70;;
25319;SDS011;13256;49.012;8.610;2024-01-11T16:05:24;44.75;;;19.17;;
25319;SDS011;13256;49.012;8.610;2024-01-11T16:07:53;45.03;;;20.42;;
25319;SDS011;13256;49.012;8.610;2024-01-11T16:10:19;46.13;;;20.08;;
25319;SDS011;13256;49.012;8.610;2024-01-11T16:12:48;40.70;;;18.35;;
25319;SDS011;13256;49.012;8.610;2024-01-11T16:19:36;57.38;;;24.85;;
25319;SDS011;13256;49.012;8.610;2024-01-11T16:22:03;56.05;;;25.27;;
25319;SDS011;13256;49.012;8.610;2024-01-11T16:24:32;63.80;;;26.02;;
25319;SDS011;13256;49.012;8.610;2024-01-11T16:27:05;52.00;;;22.58;;
25319;SDS011;13256;49.012;8.610;2024-01-11T16:32:08;53.60;;;24.27;;
25319;SDS011;13256;49.012;8.610;2024-01-11T16:34:38;56.28;;;25.45;;
25319;SDS011;13256;49.012;8.610;2024-01-11T16:37:06;59.50;;;24.23;;
25319;SDS011;13256;49.012;8.610;2024-01-11T16:43:30;88.72;;;37.90;;
25319;SDS011;13256;49.012;8.610;2024-01-11T16:46:05;77.05;;;35.20;;
25319;SDS011;13256;49.012;8.610;2024-01-11T16:48:39;76.47;;;33.15;;
25319;SDS011;13256;49.012;8.610;2024-01-11T16:51:08;77.90;;;32.45;;
25319;SDS011;13256;49.012;8.610;2024-01-11T16:53:35;81.20;;;37.55;;
25319;SDS011;13256;49.012;8.610;2024-01-11T16:56:02;112.18;;;46.50;;
25319;SDS011;13256;49.012;8.610;2024-01-11T16:58:30;99.82;;;41.13;;
25319;SDS011;13256;49.012;8.610;2024-01-11T17:01:00;80.95;;;34.65;;
25319;SDS011;13256;49.012;8.610;2024-01-11T17:03:28;79.18;;;28.55;;